Time;durP1;ratioP1;P1;durP2;ratioP2;P2;SDS_P1;SDS_P2;PMS_P1;PMS_P2;Temp;Humidity;BMP_temperature;BMP_pressure;BME280_temperature;BME280_humidity;BME280_pressure;Samples;Min_cycle;Max_cycle;Signal;HPM_P1;HPM_P2
2022/04/21 00:00:16;;;;;;;5.55;3.95;;;6.30;99.90;;;;;;5047184;28;20063;-52
2022/04/21 00:02:43;;;;;;;6.80;4.40;;;6.30;99.90;;;;;;5044571;28;20087;-55
2022/04/21 00:05:09;;;;;;;5.53;3.92;;;6.30;99.90;;;;;;5029164;28;20031;-52
2022/04/21 00:07:35;;;;;;;4.68;4.18;;;6.20;99.90;;;;;;5034883;28;20028;-57
2022/04/21 00:10:05;;;;;;;5.20;4.53;;;6.20;99.90;;;;;;5048680;28;20029;-50
2022/04/21 00:12:33;;;;;;;4.68;4.10;;;6.20;99.90;;;;;;5048102;28;20029;-52
2022/04/21 00:14:59;;;;;;;4.22;3.75;;;6.20;99.90;;;;;;5037915;28;20041;-57
2022/04/21 00:17:25;;;;;;;5.50;4.28;;;6.10;99.90;;;;;;5028828;28;20076;-51
2022/04/21 00:19:51;;;;;;;6.85;4.35;;;6.10;99.90;;;;;;5029229;28;20053;-54
2022/04/21 00:25:00;;;;;;;6.15;4.45;;;6.10;99.90;;;;;;5029279;28;20087;-53
2022/04/21 00:27:26;;;;;;;6.13;4.47;;;6.10;99.90;;;;;;5028784;28;20021;-56
2022/04/21 00:29:52;;;;;;;6.72;4.05;;;6.00;99.90;;;;;;5031710;28;20496;-54
2022/04/21 00:32:17;;;;;;;4.57;3.92;;;6.00;99.90;;;;;;5039977;28;20116;-50
2022/04/21 00:34:43;;;;;;;6.53;4.20;;;6.00;99.90;;;;;;5048819;28;20566;-55
2022/04/21 00:37:10;;;;;;;5.75;3.55;;;6.00;99.90;;;;;;5035838;28;20473;-53
2022/04/21 00:39:35;;;;;;;5.55;4.25;;;6.00;99.90;;;;;;5048017;28;20606;-55
2022/04/21 00:42:02;;;;;;;5.05;4.35;;;6.00;99.90;;;;;;5046304;28;20096;-57
2022/04/21 00:44:29;;;;;;;6.15;5.03;;;6.00;99.90;;;;;;5050184;28;20132;-53
2022/04/21 00:46:59;;;;;;;4.82;4.03;;;6.00;99.90;;;;;;5050928;28;20033;-53
2022/04/21 00:49:26;;;;;;;10.10;4.60;;;5.90;99.90;;;;;;5031348;28;20051;-55
2022/04/21 00:51:52;;;;;;;6.40;4.63;;;6.00;99.90;;;;;;5032998;28;20033;-53
2022/04/21 00:54:19;;;;;;;5.20;4.47;;;5.90;99.90;;;;;;5052617;28;20041;-52
2022/04/21 00:56:45;;;;;;;4.72;4.22;;;5.90;99.90;;;;;;5038122;28;20045;-53
2022/04/21 00:59:11;;;;;;;5.65;4.15;;;5.80;99.90;;;;;;5030126;28;20030;-52
2022/04/21 01:04:25;;;;;;;5.75;4.72;;;5.80;99.90;;;;;;5031457;28;20420;-52
2022/04/21 01:06:55;;;;;;;6.20;4.28;;;5.80;99.90;;;;;;5042150;28;20092;-51
2022/04/21 01:09:21;;;;;;;6.90;4.47;;;5.80;99.90;;;;;;5051622;28;20029;-53
2022/04/21 01:11:50;;;;;;;4.95;4.43;;;5.80;99.90;;;;;;5023860;28;20097;-54
2022/04/21 01:14:16;;;;;;;5.88;4.60;;;5.80;99.90;;;;;;5035221;28;20021;-53
2022/04/21 01:16:42;;;;;;;6.13;4.28;;;5.70;99.90;;;;;;5051314;28;20120;-55
2022/04/21 01:19:07;;;;;;;4.78;4.13;;;5.70;99.90;;;;;;5051937;28;20404;-50
2022/04/21 01:21:33;;;;;;;5.97;4.47;;;5.70;99.90;;;;;;5046495;28;20072;-54
2022/04/21 01:23:59;;;;;;;5.93;4.45;;;5.60;99.90;;;;;;5045737;28;20730;-53
2022/04/21 01:26:30;;;;;;;6.68;4.45;;;5.60;99.90;;;;;;5049940;28;20033;-53
2022/04/21 01:28:55;;;;;;;6.68;4.78;;;5.60;99.90;;;;;;5052056;28;20056;-53
2022/04/21 01:31:22;;;;;;;4.93;4.20;;;5.60;99.90;;;;;;5036101;28;20194;-53
2022/04/21 01:33:48;;;;;;;5.53;4.38;;;5.50;99.90;;;;;;5031649;28;20517;-53
2022/04/21 01:36:13;;;;;;;5.28;4.55;;;5.50;99.90;;;;;;5032039;28;20025;-52
2022/04/21 01:41:23;;;;;;;5.00;4.28;;;5.50;99.90;;;;;;5031942;28;20040;-50
2022/04/21 01:43:48;;;;;;;6.05;5.03;;;5.50;99.90;;;;;;5044483;28;20041;-54
2022/04/21 01:46:14;;;;;;;5.88;4.93;;;5.40;99.90;;;;;;5050864;28;20031;-53
2022/04/21 01:48:40;;;;;;;8.55;4.28;;;5.40;99.90;;;;;;5051023;28;20029;-52
2022/04/21 01:51:06;;;;;;;5.18;4.07;;;5.50;99.90;;;;;;5039312;28;20032;-52
2022/04/21 01:53:31;;;;;;;4.72;4.25;;;5.50;99.90;;;;;;5033954;28;20029;-52
2022/04/21 01:55:57;;;;;;;4.70;4.20;;;5.50;99.90;;;;;;5050771;28;20048;-51
2022/04/21 01:58:23;;;;;;;4.82;4.32;;;5.50;99.90;;;;;;5033158;28;20039;-54
2022/04/21 02:00:48;;;;;;;8.20;4.88;;;5.40;99.90;;;;;;5051297;28;20087;-51
2022/04/21 02:03:14;;;;;;;6.20;4.28;;;5.50;99.90;;;;;;5048304;28;20052;-55
2022/04/21 02:05:39;;;;;;;8.32;4.95;;;5.40;99.90;;;;;;5013731;28;20096;-51
2022/04/21 02:08:05;;;;;;;10.65;4.55;;;5.50;99.90;;;;;;5036335;28;20361;-54
2022/04/21 02:10:31;;;;;;;6.10;4.20;;;5.50;99.90;;;;;;5051854;28;20379;-52
2022/04/21 02:12:57;;;;;;;5.38;4.28;;;5.40;99.90;;;;;;5036171;28;20117;-56
2022/04/21 02:15:23;;;;;;;7.07;4.70;;;5.40;99.90;;;;;;5031485;28;20049;-53
2022/04/21 02:17:49;;;;;;;8.05;4.47;;;5.40;99.90;;;;;;5043827;28;20079;-53
2022/04/21 02:20:16;;;;;;;7.43;4.70;;;5.40;99.90;;;;;;5027763;28;20145;-53
2022/04/21 02:22:43;;;;;;;7.88;4.80;;;5.40;99.90;;;;;;5042650;28;20033;-51
2022/04/21 02:25:09;;;;;;;5.07;4.18;;;5.40;99.90;;;;;;5046238;28;20052;-52
2022/04/21 02:27:37;;;;;;;6.18;4.50;;;5.40;99.90;;;;;;5030546;28;20021;-51
2022/04/21 02:30:07;;;;;;;6.43;4.22;;;5.40;99.90;;;;;;5047530;28;20033;-52
2022/04/21 02:32:32;;;;;;;7.85;4.63;;;5.30;99.90;;;;;;5049897;28;20036;-50
2022/04/21 02:34:58;;;;;;;6.57;4.63;;;5.30;99.90;;;;;;5050079;28;20025;-54
2022/04/21 02:37:24;;;;;;;11.05;5.38;;;5.30;99.90;;;;;;5044630;28;20147;-51
2022/04/21 02:39:50;;;;;;;5.93;4.88;;;5.30;99.90;;;;;;5035046;28;20021;-51
2022/04/21 02:42:16;;;;;;;7.55;4.63;;;5.30;99.90;;;;;;5039495;28;20694;-56
2022/04/21 02:44:42;;;;;;;8.10;4.68;;;5.30;99.90;;;;;;5030621;28;20555;-54
2022/04/21 02:47:08;;;;;;;6.53;4.30;;;5.30;99.90;;;;;;5046206;28;20033;-50
2022/04/21 02:49:37;;;;;;;8.70;4.78;;;5.30;99.90;;;;;;5032486;28;20115;-55
2022/04/21 02:52:07;;;;;;;5.65;4.68;;;5.30;99.90;;;;;;5034941;28;20112;-53
2022/04/21 02:57:20;;;;;;;6.30;4.63;;;5.30;99.90;;;;;;5030719;28;20052;-52
2022/04/21 02:59:47;;;;;;;7.40;5.25;;;5.40;99.90;;;;;;5043044;28;20037;-50
2022/04/21 03:02:13;;;;;;;5.95;4.53;;;5.40;99.90;;;;;;5049424;28;20447;-52
2022/04/21 03:04:39;;;;;;;5.93;4.45;;;5.40;99.90;;;;;;5041354;28;20047;-52
2022/04/21 03:07:04;;;;;;;6.50;4.78;;;5.40;99.90;;;;;;5029156;28;20512;-53
2022/04/21 03:09:32;;;;;;;5.78;4.70;;;5.40;99.90;;;;;;5034213;28;20020;-50
2022/04/21 03:12:05;;;;;;;7.90;4.70;;;5.40;99.90;;;;;;5017573;28;20038;-53
2022/04/21 03:14:31;;;;;;;4.53;4.00;;;5.40;99.90;;;;;;5040346;28;20025;-53
2022/04/21 03:16:57;;;;;;;7.15;4.30;;;5.40;99.90;;;;;;5018591;28;20084;-54
2022/04/21 03:19:23;;;;;;;7.93;5.13;;;5.40;99.90;;;;;;5039161;28;20107;-53
2022/04/21 03:24:33;;;;;;;5.80;4.78;;;5.40;99.90;;;;;;5034928;28;20052;-51
2022/04/21 03:26:59;;;;;;;7.15;4.53;;;5.40;99.90;;;;;;5041569;28;20030;-52
2022/04/21 03:29:25;;;;;;;9.27;5.78;;;5.30;99.90;;;;;;5042734;28;20033;-52
2022/04/21 03:31:50;;;;;;;5.43;4.25;;;5.30;99.90;;;;;;5047770;28;20033;-52
2022/04/21 03:34:18;;;;;;;8.05;5.57;;;5.30;99.90;;;;;;5031750;28;20063;-55
2022/04/21 03:36:48;;;;;;;5.05;4.45;;;5.30;99.90;;;;;;5047648;28;20028;-52
2022/04/21 03:39:19;;;;;;;7.15;4.90;;;5.30;99.90;;;;;;5045070;28;20037;-52
2022/04/21 03:41:44;;;;;;;8.27;4.70;;;5.30;99.90;;;;;;5029118;28;20036;-53
2022/04/21 03:44:11;;;;;;;9.02;4.95;;;5.30;99.90;;;;;;5029354;28;20029;-53
2022/04/21 03:46:40;;;;;;;5.45;4.80;;;5.30;99.90;;;;;;5033750;28;20028;-53
2022/04/21 03:49:06;;;;;;;4.95;4.28;;;5.30;99.90;;;;;;5049002;28;20114;-56
2022/04/21 03:51:32;;;;;;;8.05;4.85;;;5.20;99.90;;;;;;5031371;28;20057;-51
2022/04/21 03:53:58;;;;;;;6.68;4.65;;;5.20;99.90;;;;;;5029226;28;20033;-52
2022/04/21 03:56:23;;;;;;;8.68;4.47;;;5.20;99.90;;;;;;5036450;28;20618;-53
2022/04/21 03:58:50;;;;;;;5.95;4.47;;;5.20;99.90;;;;;;5044455;28;20491;-52
2022/04/21 04:01:16;;;;;;;6.63;4.38;;;5.20;99.90;;;;;;5044054;28;20072;-50
2022/04/21 04:03:42;;;;;;;9.40;5.03;;;5.20;99.90;;;;;;5049204;28;20676;-52
2022/04/21 04:10:51;;;;;;;7.10;4.85;;;5.20;99.90;;;;;;5038374;28;20037;-52
2022/04/21 04:11:39;;;;;;;6.82;4.80;;;5.20;99.90;;;;;;5029165;28;20396;-52
2022/04/21 04:14:05;;;;;;;7.63;4.55;;;5.20;99.90;;;;;;5045882;28;20033;-52
2022/04/21 04:16:34;;;;;;;6.00;4.47;;;5.20;99.90;;;;;;5029218;28;20037;-51
2022/04/21 04:19:00;;;;;;;6.40;4.63;;;5.20;99.90;;;;;;5031821;28;20022;-53
2022/04/21 04:21:26;;;;;;;6.90;4.82;;;5.20;99.90;;;;;;5028527;28;20025;-55
2022/04/21 04:23:51;;;;;;;6.53;5.07;;;5.20;99.90;;;;;;5044089;28;20139;-53
2022/04/21 04:26:17;;;;;;;7.70;4.85;;;5.10;99.90;;;;;;5048556;28;20017;-53
2022/04/21 04:28:42;;;;;;;6.50;4.88;;;5.20;99.90;;;;;;5048380;28;20090;-54
2022/04/21 04:31:08;;;;;;;7.80;4.40;;;5.20;99.90;;;;;;5048586;28;20036;-51
2022/04/21 04:33:34;;;;;;;13.00;5.75;;;5.20;99.90;;;;;;5034381;28;20060;-55
2022/04/21 04:36:00;;;;;;;7.60;4.88;;;5.20;99.90;;;;;;5043472;28;20415;-54
2022/04/21 04:38:26;;;;;;;12.75;5.18;;;5.20;99.90;;;;;;5041111;28;20086;-54
2022/04/21 04:40:51;;;;;;;11.35;6.20;;;5.20;99.90;;;;;;5034017;28;20033;-50
2022/04/21 04:43:17;;;;;;;9.85;5.38;;;5.30;99.90;;;;;;5043789;28;20086;-51
2022/04/21 04:48:27;;;;;;;8.40;5.97;;;5.30;99.90;;;;;;5047591;28;20542;-55
2022/04/21 04:50:52;;;;;;;5.97;5.25;;;5.30;99.90;;;;;;5028868;28;20025;-58
2022/04/21 04:53:18;;;;;;;7.68;5.35;;;5.30;99.90;;;;;;5044099;28;20030;-54
2022/04/21 04:55:43;;;;;;;5.97;5.20;;;5.40;99.90;;;;;;5028658;28;20033;-50
2022/04/21 04:58:09;;;;;;;7.35;4.60;;;5.40;99.90;;;;;;5028720;28;20025;-54
2022/04/21 05:00:34;;;;;;;10.43;5.13;;;5.40;99.90;;;;;;5028992;28;20025;-54
2022/04/21 05:03:01;;;;;;;7.05;4.97;;;5.50;99.90;;;;;;5030972;28;20044;-54
2022/04/21 05:05:26;;;;;;;6.78;4.70;;;5.50;99.90;;;;;;5048328;28;20025;-55
2022/04/21 05:07:52;;;;;;;6.57;4.97;;;5.50;99.90;;;;;;5043594;28;20024;-53
2022/04/21 05:10:19;;;;;;;6.75;5.45;;;5.60;99.90;;;;;;5039529;28;20021;-56
2022/04/21 05:12:45;;;;;;;6.32;4.68;;;5.60;99.90;;;;;;5028361;28;20033;-57
2022/04/21 05:15:10;;;;;;;6.50;4.88;;;5.70;99.90;;;;;;5028409;28;20100;-54
2022/04/21 05:17:36;;;;;;;7.05;4.13;;;5.70;99.90;;;;;;5028080;28;20056;-55
2022/04/21 05:20:02;;;;;;;7.82;4.50;;;5.80;99.90;;;;;;5031248;28;20051;-54
2022/04/21 05:22:37;;;;;;;5.45;4.65;;;5.80;99.90;;;;;;5030324;28;20032;-58
2022/04/21 05:25:08;;;;;;;5.93;4.75;;;5.90;99.90;;;;;;5042893;28;20686;-54
2022/04/21 05:27:34;;;;;;;4.32;3.80;;;6.00;99.90;;;;;;5028468;28;20443;-53
2022/04/21 05:32:48;;;;;;;11.75;4.38;;;6.10;99.90;;;;;;5031830;28;20052;-57
2022/04/21 05:35:16;;;;;;;7.03;4.53;;;6.20;99.90;;;;;;5043332;28;20577;-49
2022/04/21 05:37:42;;;;;;;8.68;4.95;;;6.30;99.90;;;;;;5051285;28;20503;-57
2022/04/21 05:40:08;;;;;;;7.25;4.45;;;6.40;99.90;;;;;;5033805;28;20066;-54
2022/04/21 05:42:38;;;;;;;5.78;4.00;;;6.50;99.90;;;;;;5049584;28;20037;-55
2022/04/21 05:45:05;;;;;;;7.93;4.68;;;6.60;99.90;;;;;;5051239;28;20116;-55
2022/04/21 05:47:32;;;;;;;6.95;4.47;;;6.70;99.90;;;;;;5051415;28;20082;-55
2022/04/21 05:49:58;;;;;;;7.50;4.85;;;6.80;99.90;;;;;;5051246;28;20079;-52
2022/04/21 05:52:27;;;;;;;7.20;4.22;;;6.90;99.90;;;;;;5051377;28;20033;-52
2022/04/21 05:54:52;;;;;;;6.18;4.72;;;7.00;99.90;;;;;;5005862;28;20045;-58
2022/04/21 05:57:18;;;;;;;5.05;3.88;;;7.10;99.90;;;;;;5031817;28;20025;-53
2022/04/21 05:59:43;;;;;;;6.93;3.90;;;7.10;99.90;;;;;;5046860;28;20021;-57
2022/04/21 06:02:10;;;;;;;8.45;3.97;;;7.30;99.90;;;;;;5032391;28;20867;-53
2022/04/21 06:04:35;;;;;;;6.65;3.78;;;7.40;99.90;;;;;;5031329;28;20099;-52
2022/04/21 06:07:01;;;;;;;5.97;4.28;;;7.50;99.90;;;;;;5046814;28;20053;-55
2022/04/21 06:09:26;;;;;;;3.85;3.40;;;7.60;99.90;;;;;;5046815;28;20029;-53
2022/04/21 06:11:52;;;;;;;5.43;3.95;;;7.70;99.90;;;;;;5048537;28;20056;-50
2022/04/21 06:14:18;;;;;;;6.43;3.45;;;7.80;99.90;;;;;;5016821;28;20105;-53
2022/04/21 06:16:43;;;;;;;6.13;3.70;;;7.80;99.90;;;;;;5049450;28;20040;-54
2022/04/21 06:19:09;;;;;;;4.43;3.78;;;7.90;99.90;;;;;;5050876;28;20115;-55
2022/04/21 06:21:34;;;;;;;4.30;3.63;;;7.90;99.90;;;;;;5050839;28;20080;-53
2022/04/21 06:24:00;;;;;;;4.15;3.75;;;7.90;99.90;;;;;;5032733;28;20469;-52
2022/04/21 06:26:26;;;;;;;6.32;3.83;;;7.90;99.90;;;;;;5030731;28;20242;-53
2022/04/21 06:28:54;;;;;;;10.05;3.67;;;8.00;99.90;;;;;;5031134;28;20048;-55
2022/04/21 06:31:19;;;;;;;4.00;3.50;;;8.10;99.90;;;;;;5030588;28;20028;-56
2022/04/21 06:33:45;;;;;;;4.40;3.25;;;8.10;99.90;;;;;;5041773;28;20037;-53
2022/04/21 06:36:11;;;;;;;5.75;3.55;;;8.20;99.90;;;;;;5048745;28;20567;-53
2022/04/21 06:38:36;;;;;;;7.07;3.88;;;8.30;99.90;;;;;;5031043;28;20025;-57
2022/04/21 06:41:02;;;;;;;3.70;3.38;;;8.40;99.90;;;;;;5031167;28;20128;-52
2022/04/21 06:48:57;;;;;;;3.83;2.50;;;8.80;99.90;;;;;;5047064;28;20071;-50
2022/04/21 06:51:22;;;;;;;4.47;2.67;;;9.00;99.90;;;;;;5050371;28;20020;-53
2022/04/21 06:53:48;;;;;;;3.78;2.95;;;9.10;99.90;;;;;;5050344;28;20109;-50
2022/04/21 06:56:14;;;;;;;3.97;3.03;;;9.40;99.90;;;;;;5050313;28;20025;-52
2022/04/21 06:58:40;;;;;;;4.72;2.70;;;9.50;99.90;;;;;;5050318;28;20199;-53
2022/04/21 07:01:06;;;;;;;7.35;2.75;;;9.60;99.90;;;;;;5050374;28;20751;-51
2022/04/21 07:03:33;;;;;;;4.47;2.83;;;9.80;99.90;;;;;;5032253;28;20029;-51
2022/04/21 07:06:00;;;;;;;3.42;2.40;;;10.00;99.90;;;;;;5050122;28;20021;-52
2022/04/21 07:08:26;;;;;;;3.05;2.85;;;10.10;99.90;;;;;;5050249;28;20009;-54
2022/04/21 07:10:51;;;;;;;4.00;2.63;;;10.30;99.90;;;;;;5050351;28;20025;-56
2022/04/21 07:13:17;;;;;;;4.20;2.65;;;10.40;99.90;;;;;;5050047;28;20100;-54
2022/04/21 07:15:42;;;;;;;2.90;2.50;;;10.60;99.90;;;;;;5042897;28;20480;-57
2022/04/21 07:18:10;;;;;;;3.03;2.40;;;10.50;99.90;;;;;;5030507;28;20484;-55
2022/04/21 07:20:36;;;;;;;3.25;2.35;;;10.70;99.90;;;;;;5030541;28;20029;-55
2022/04/21 07:23:02;;;;;;;5.35;2.70;;;10.80;99.90;;;;;;5044808;28;20064;-55
2022/04/21 07:25:28;;;;;;;6.05;2.55;;;10.90;99.90;;;;;;5031012;28;20507;-53
2022/04/21 07:27:54;;;;;;;3.80;2.10;;;11.10;99.90;;;;;;5028826;28;20033;-54
2022/04/21 07:30:20;;;;;;;3.63;2.50;;;11.30;99.90;;;;;;5011650;28;20543;-53
2022/04/21 07:32:46;;;;;;;2.50;2.30;;;11.50;99.90;;;;;;5026639;28;20511;-53
2022/04/21 07:35:12;;;;;;;4.57;2.60;;;11.60;99.90;;;;;;5049613;28;20066;-55
2022/04/21 07:37:38;;;;;;;2.42;2.00;;;11.80;99.90;;;;;;5048583;28;20029;-54
2022/04/21 07:40:05;;;;;;;2.90;2.45;;;12.10;99.90;;;;;;5050005;28;20098;-53
2022/04/21 07:42:30;;;;;;;2.42;1.88;;;12.30;99.90;;;;;;5043138;28;20029;-54
2022/04/21 07:45:00;;;;;;;2.47;1.85;;;12.40;99.90;;;;;;5034521;28;20021;-55
2022/04/21 07:47:25;;;;;;;3.45;2.13;;;12.50;99.90;;;;;;5029606;28;20369;-58
2022/04/21 07:49:51;;;;;;;2.90;1.98;;;12.40;99.90;;;;;;5029937;28;20033;-56
2022/04/21 07:55:14;;;;;;;3.20;2.50;;;12.60;99.90;;;;;;5043193;28;20032;-57
2022/04/21 07:57:41;;;;;;;2.58;1.90;;;12.70;99.90;;;;;;5049586;28;20104;-52
2022/04/21 08:00:08;;;;;;;3.60;2.65;;;12.80;99.90;;;;;;5048811;28;20480;-52
2022/04/21 08:02:33;;;;;;;6.47;2.40;;;13.00;99.90;;;;;;5048848;28;20033;-55
2022/04/21 08:04:59;;;;;;;2.15;1.98;;;13.20;99.60;;;;;;5047570;28;20051;-55
2022/04/21 08:07:25;;;;;;;3.03;2.17;;;13.50;99.10;;;;;;5049616;28;20021;-54
2022/04/21 08:09:50;;;;;;;3.65;2.15;;;13.70;99.10;;;;;;5047643;28;20495;-50
2022/04/21 08:12:16;;;;;;;5.90;2.30;;;13.80;98.10;;;;;;5048785;28;20032;-57
2022/04/21 08:14:41;;;;;;;2.75;1.90;;;13.80;97.70;;;;;;5047318;28;20021;-53
2022/04/21 08:17:08;;;;;;;1.92;1.80;;;13.80;98.20;;;;;;5038067;28;20055;-54
2022/04/21 08:19:34;;;;;;;4.03;2.13;;;14.00;97.20;;;;;;5029253;28;20404;-55
2022/04/21 08:21:59;;;;;;;7.60;2.20;;;13.80;96.90;;;;;;5043631;28;20029;-55
2022/04/21 08:32:41;;;;;;;2.30;2.10;;;14.20;97.40;;;;;;5031634;28;20480;-53
2022/04/21 08:35:07;;;;;;;2.08;1.73;;;14.20;95.60;;;;;;5048741;28;20094;-56
2022/04/21 08:37:36;;;;;;;2.95;2.55;;;14.20;95.80;;;;;;5048650;28;20033;-53
2022/04/21 08:40:03;;;;;;;2.22;1.90;;;14.10;95.60;;;;;;5048888;28;20040;-57
2022/04/21 08:42:30;;;;;;;3.20;2.30;;;14.10;95.60;;;;;;5048544;28;20159;-54
2022/04/21 08:44:58;;;;;;;3.92;2.10;;;14.20;95.20;;;;;;5049120;28;20037;-59
2022/04/21 08:47:27;;;;;;;3.03;2.10;;;14.10;94.90;;;;;;5048994;28;20052;-54
2022/04/21 08:49:58;;;;;;;2.50;1.75;;;14.20;95.00;;;;;;5048801;28;20035;-51
2022/04/21 08:52:23;;;;;;;2.40;2.20;;;14.30;95.20;;;;;;5031423;28;20024;-57
2022/04/21 08:54:49;;;;;;;2.53;1.65;;;14.30;94.40;;;;;;5048962;28;20025;-58
2022/04/21 08:57:15;;;;;;;4.22;2.35;;;14.30;93.60;;;;;;5048483;28;20051;-53
2022/04/21 08:59:40;;;;;;;2.67;2.08;;;14.50;94.40;;;;;;5048837;28;20036;-54
2022/04/21 09:02:06;;;;;;;3.40;2.20;;;14.60;93.40;;;;;;5048395;28;20025;-52
2022/04/21 09:04:32;;;;;;;2.33;2.05;;;14.70;93.60;;;;;;5030987;28;20029;-58
2022/04/21 09:07:15;;;;;;;2.22;1.70;;;14.90;94.00;;;;;;5052546;28;20021;-54
2022/04/21 09:09:58;;;;;;;2.40;2.03;;;15.00;92.30;;;;;;5044306;28;20057;-56
2022/04/21 09:12:24;;;;;;;3.00;2.10;;;14.80;92.10;;;;;;5034228;28;20029;-53
2022/04/21 09:14:49;;;;;;;3.22;1.90;;;14.70;92.50;;;;;;5025918;28;20515;-53
2022/04/21 09:17:16;;;;;;;2.35;2.03;;;14.50;92.40;;;;;;5021020;28;20029;-53
2022/04/21 09:19:55;;;;;;;2.40;2.08;;;14.40;92.40;;;;;;5039722;28;20500;-56
2022/04/21 09:22:21;;;;;;;2.38;2.00;;;14.40;93.00;;;;;;5044084;28;20057;-52
2022/04/21 09:24:46;;;;;;;9.52;2.17;;;14.80;93.70;;;;;;5051740;28;20060;-54
2022/04/21 09:27:12;;;;;;;2.42;2.17;;;14.80;92.30;;;;;;5032494;28;20036;-53
2022/04/21 09:29:38;;;;;;;3.80;1.98;;;14.80;92.30;;;;;;5051595;28;20454;-56
2022/04/21 09:32:04;;;;;;;2.50;1.83;;;14.90;92.50;;;;;;5051109;28;20038;-53
2022/04/21 09:34:30;;;;;;;2.58;2.00;;;15.10;92.10;;;;;;5050320;28;20404;-54
2022/04/21 09:36:57;;;;;;;2.55;1.88;;;15.00;91.60;;;;;;5043318;28;20030;-56
2022/04/21 09:39:23;;;;;;;3.00;1.88;;;15.10;91.70;;;;;;5043186;28;20047;-56
2022/04/21 09:41:53;;;;;;;3.42;2.30;;;15.10;91.60;;;;;;5051843;28;20059;-55
2022/04/21 09:47:05;;;;;;;2.33;2.13;;;15.30;91.40;;;;;;5052115;28;20055;-56
2022/04/21 09:49:50;;;;;;;4.05;2.38;;;15.00;91.90;;;;;;5050945;28;20037;-58
2022/04/21 09:52:31;;;;;;;2.50;1.90;;;15.10;92.30;;;;;;5051494;28;20027;-51
2022/04/21 09:54:56;;;;;;;2.17;1.98;;;15.20;93.10;;;;;;5051762;28;20075;-55
2022/04/21 09:57:32;;;;;;;3.38;2.05;;;15.40;93.80;;;;;;5051743;28;20473;-53
2022/04/21 09:59:58;;;;;;;2.92;2.13;;;15.70;92.20;;;;;;5051764;28;20630;-54
2022/04/21 10:02:29;;;;;;;1.60;1.50;;;16.10;92.60;;;;;;5051305;28;20469;-56
2022/04/21 10:04:56;;;;;;;2.63;2.40;;;16.50;90.70;;;;;;5051645;28;20685;-53
2022/04/21 10:07:22;;;;;;;3.95;2.30;;;16.70;89.20;;;;;;5051212;28;20550;-55
2022/04/21 10:09:50;;;;;;;2.97;2.08;;;16.80;89.30;;;;;;5041766;28;20029;-57
2022/04/21 10:12:16;;;;;;;3.75;1.85;;;16.90;88.80;;;;;;5031226;28;20083;-52
2022/04/21 10:14:42;;;;;;;6.63;2.10;;;16.70;85.70;;;;;;5013594;28;20084;-54
2022/04/21 10:17:10;;;;;;;3.95;1.77;;;16.40;86.10;;;;;;5031665;28;20037;-56
2022/04/21 10:19:35;;;;;;;9.85;1.90;;;16.40;88.20;;;;;;5031499;28;20041;-57
2022/04/21 10:22:05;;;;;;;2.25;2.05;;;16.50;86.10;;;;;;5031044;28;20022;-55
2022/04/21 10:24:34;;;;;;;5.68;1.63;;;16.30;88.60;;;;;;5030870;28;20112;-54
2022/04/21 10:27:00;;;;;;;2.75;2.28;;;16.40;86.90;;;;;;5039346;28;20025;-53
2022/04/21 10:29:27;;;;;;;3.53;1.90;;;16.50;86.60;;;;;;5050304;28;20438;-54
2022/04/21 10:32:00;;;;;;;3.78;2.30;;;16.70;86.30;;;;;;5050856;28;20033;-56
2022/04/21 10:34:38;;;;;;;2.08;1.80;;;16.80;84.80;;;;;;5048166;28;20044;-58
2022/04/21 10:37:09;;;;;;;5.20;2.13;;;16.60;85.50;;;;;;5030049;28;20021;-50
2022/04/21 10:39:35;;;;;;;4.00;1.90;;;16.40;86.20;;;;;;5031190;28;20125;-57
2022/04/21 10:42:10;;;;;;;2.53;1.98;;;16.50;87.10;;;;;;5030696;28;20105;-55
2022/04/21 10:44:44;;;;;;;3.33;1.67;;;16.50;87.50;;;;;;5031519;28;20032;-54
2022/04/21 10:47:30;;;;;;;2.63;1.88;;;16.60;86.70;;;;;;5029543;28;20033;-56
2022/04/21 10:50:00;;;;;;;2.88;1.92;;;16.80;86.30;;;;;;5040577;28;20021;-57
2022/04/21 10:57:48;;;;;;;1.90;1.70;;;16.30;84.10;;;;;;5032817;28;20499;-54
2022/04/21 11:00:33;;;;;;;1.75;1.60;;;16.20;84.80;;;;;;5036690;28;20149;-57
2022/04/21 11:03:09;;;;;;;3.42;1.85;;;15.80;86.90;;;;;;5046792;28;20033;-56
2022/04/21 11:05:35;;;;;;;;;;;15.90;86.70;;;;;;5044285;28;20139;-57
2022/04/21 11:08:12;;;;;;;2.00;1.33;;;16.20;88.30;;;;;;5035532;28;20063;-58
2022/04/21 11:10:44;;;;;;;2.75;1.88;;;16.60;87.50;;;;;;5050552;28;20614;-55
2022/04/21 11:13:32;;;;;;;2.08;1.48;;;16.80;85.50;;;;;;5033869;28;20033;-57
2022/04/21 11:15:58;;;;;;;2.30;1.80;;;17.10;84.80;;;;;;5029437;28;20038;-53
2022/04/21 11:18:28;;;;;;;1.95;1.50;;;17.00;84.30;;;;;;5030340;28;20495;-56
2022/04/21 11:21:26;;;;;;;3.45;1.65;;;16.80;83.90;;;;;;5045406;28;20136;-55
2022/04/21 11:23:52;;;;;;;2.78;1.77;;;16.40;84.10;;;;;;5008709;28;20057;-55
2022/04/21 11:26:24;;;;;;;4.97;2.22;;;16.30;86.30;;;;;;5015975;28;20049;-54
2022/04/21 11:28:51;;;;;;;2.60;1.67;;;16.50;87.90;;;;;;5047203;28;20025;-53
2022/04/21 11:31:20;;;;;;;2.35;2.10;;;16.50;84.90;;;;;;5049473;28;20033;-55
2022/04/21 11:33:46;;;;;;;2.33;1.77;;;16.20;85.30;;;;;;5048600;28;20468;-56
2022/04/21 11:36:14;;;;;;;5.82;1.92;;;15.90;85.00;;;;;;5049472;28;20033;-57
2022/04/21 11:38:41;;;;;;;2.50;2.00;;;15.70;87.10;;;;;;5049379;28;20151;-58
2022/04/21 11:41:09;;;;;;;3.22;1.70;;;15.40;87.40;;;;;;5048850;28;20039;-52
2022/04/21 11:43:35;;;;;;;2.53;1.90;;;15.40;87.90;;;;;;5032875;28;20029;-58
2022/04/21 11:46:04;;;;;;;3.92;2.50;;;15.30;88.00;;;;;;5029927;28;20029;-57
2022/04/21 11:48:33;;;;;;;4.28;2.00;;;15.40;88.70;;;;;;5029923;28;20036;-56
2022/04/21 11:50:59;;;;;;;3.75;2.13;;;15.40;88.90;;;;;;5042437;28;20041;-55
2022/04/21 11:53:28;;;;;;;4.40;1.55;;;15.40;88.90;;;;;;5028768;28;20048;-58
2022/04/21 11:55:54;;;;;;;2.22;2.03;;;15.50;87.80;;;;;;5048173;28;20036;-58
2022/04/21 11:58:30;;;;;;;3.08;2.00;;;15.70;88.00;;;;;;5049657;28;20035;-56
2022/04/21 12:06:39;;;;;;;4.78;1.65;;;16.10;85.50;;;;;;5049295;28;20098;-52
2022/04/21 12:09:05;;;;;;;3.08;1.50;;;16.10;86.00;;;;;;5029381;28;20024;-56
2022/04/21 12:11:35;;;;;;;2.47;1.60;;;16.20;85.50;;;;;;5048670;28;20513;-56
2022/04/21 12:14:01;;;;;;;3.17;2.00;;;16.20;86.20;;;;;;5031602;28;20065;-56
2022/04/21 12:16:43;;;;;;;4.35;2.20;;;16.10;84.80;;;;;;5029294;28;20037;-57
2022/04/21 12:19:18;;;;;;;2.10;1.80;;;16.00;85.30;;;;;;5013337;28;20034;-56
2022/04/21 12:21:55;;;;;;;2.72;1.75;;;15.90;85.80;;;;;;5042670;28;20048;-55
2022/04/21 12:24:30;;;;;;;4.55;1.83;;;15.70;86.50;;;;;;5048759;28;20021;-56
2022/04/21 12:26:56;;;;;;;3.03;2.13;;;15.70;87.40;;;;;;5049057;28;20032;-53
2022/04/21 12:29:23;;;;;;;3.75;2.28;;;15.70;88.50;;;;;;5048617;28;20028;-56
2022/04/21 12:31:51;;;;;;;3.95;2.15;;;15.60;87.70;;;;;;5049175;28;20431;-53
2022/04/21 12:34:28;;;;;;;2.67;1.90;;;15.60;86.90;;;;;;5044744;28;20485;-56
2022/04/21 12:37:05;;;;;;;2.22;1.88;;;15.50;87.30;;;;;;5029217;28;20531;-54
2022/04/21 12:39:31;;;;;;;2.22;1.98;;;15.60;87.60;;;;;;5038098;28;20029;-55
2022/04/21 12:41:57;;;;;;;4.38;1.75;;;15.60;86.30;;;;;;5049225;28;20040;-57
2022/04/21 12:44:25;;;;;;;2.40;1.90;;;15.50;86.50;;;;;;5032825;28;20033;-55
2022/04/21 12:47:17;;;;;;;4.50;2.40;;;15.30;86.80;;;;;;5032664;28;20030;-53
2022/04/21 12:50:00;;;;;;;5.20;2.28;;;15.30;87.00;;;;;;5032890;28;20022;-53
2022/04/21 12:52:37;;;;;;;4.22;2.10;;;15.20;88.50;;;;;;5032694;28;20480;-51
2022/04/21 12:55:07;;;;;;;5.07;2.20;;;15.30;87.90;;;;;;5032879;28;20018;-57
2022/04/21 12:57:34;;;;;;;2.35;2.03;;;15.20;86.70;;;;;;4995202;28;20072;-52
2022/04/21 13:00:00;;;;;;;4.18;2.10;;;14.90;88.20;;;;;;5026982;28;20067;-51
2022/04/21 13:02:26;;;;;;;4.35;2.35;;;14.80;90.00;;;;;;5037541;28;20053;-54
2022/04/21 13:04:52;;;;;;;3.20;2.25;;;14.70;90.00;;;;;;5052103;28;20100;-57
2022/04/21 13:07:18;;;;;;;5.60;2.67;;;14.60;90.30;;;;;;5028768;28;20530;-55
2022/04/21 13:09:43;;;;;;;5.07;2.20;;;14.50;90.10;;;;;;5032668;28;20014;-54
2022/04/21 13:12:09;;;;;;;8.45;2.45;;;14.40;90.60;;;;;;5032713;28;20623;-51
2022/04/21 13:14:35;;;;;;;6.40;2.58;;;14.40;91.10;;;;;;5033764;28;20535;-55
2022/04/21 13:17:01;;;;;;;5.22;2.70;;;14.40;90.50;;;;;;5033167;28;20021;-55
2022/04/21 13:19:26;;;;;;;4.95;2.65;;;14.20;91.20;;;;;;5049409;28;20032;-55
2022/04/21 13:21:52;;;;;;;3.88;2.10;;;14.20;91.40;;;;;;5051076;28;20154;-56
2022/04/21 13:24:21;;;;;;;7.85;2.70;;;14.20;91.60;;;;;;5033133;28;20029;-56
2022/04/21 13:26:47;;;;;;;6.05;2.88;;;14.20;91.10;;;;;;5032792;28;20037;-56
2022/04/21 13:29:13;;;;;;;3.83;2.55;;;14.10;91.40;;;;;;5032345;28;20091;-53
2022/04/21 13:34:23;;;;;;;4.57;2.40;;;14.30;91.60;;;;;;5031932;28;20122;-54
2022/04/21 13:36:48;;;;;;;3.03;2.65;;;14.30;91.50;;;;;;5033372;28;20053;-56
2022/04/21 13:39:15;;;;;;;3.97;2.05;;;14.40;91.70;;;;;;5032039;28;20044;-53
2022/04/21 13:41:41;;;;;;;4.60;3.00;;;14.40;91.70;;;;;;5031807;28;20017;-57
2022/04/21 13:44:07;;;;;;;3.90;2.38;;;14.40;91.10;;;;;;5032204;28;20547;-56
2022/04/21 13:46:37;;;;;;;3.15;1.92;;;14.40;91.30;;;;;;5033222;28;20026;-55
2022/04/21 13:49:03;;;;;;;3.53;2.17;;;14.60;91.30;;;;;;5032143;28;20182;-56